createdAt,value
2019-02-23T00:03:00.201Z,6.37
2019-02-23T00:06:03.773Z,5.40
2019-02-23T00:09:07.549Z,6.60
2019-02-23T00:12:11.222Z,6.63
2019-02-23T00:15:14.796Z,6.50
2019-02-23T00:18:18.234Z,5.73
2019-02-23T00:21:21.688Z,5.90
2019-02-23T00:24:25.092Z,5.57
2019-02-23T00:27:28.527Z,5.40
2019-02-23T00:30:32.192Z,5.40
2019-02-23T00:33:35.736Z,5.33
2019-02-23T00:36:39.201Z,5.70
2019-02-23T00:39:42.611Z,6.07
2019-02-23T00:42:46.313Z,5.13
2019-02-23T00:45:49.752Z,5.87
2019-02-23T00:48:53.211Z,4.63
2019-02-23T00:51:56.626Z,5.50
2019-02-23T00:55:00.007Z,5.53
2019-02-23T00:58:03.511Z,6.23
2019-02-23T01:01:06.952Z,5.63
2019-02-23T01:04:10.416Z,5.47
2019-02-23T01:07:13.820Z,5.63
2019-02-23T01:10:19.472Z,6.30
2019-02-23T01:13:22.564Z,5.07
2019-02-23T01:16:26.000Z,5.30
2019-02-23T01:19:29.464Z,5.10
2019-02-23T01:22:32.860Z,4.73
2019-02-23T01:25:37.660Z,4.70
2019-02-23T01:28:40.996Z,5.10
2019-02-23T01:31:44.396Z,4.97
2019-02-23T01:34:47.788Z,4.90
2019-02-23T01:37:51.197Z,4.70
2019-02-23T01:40:54.736Z,4.80
2019-02-23T01:44:00.477Z,4.77
2019-02-23T01:47:03.543Z,4.97
2019-02-23T01:50:07.759Z,5.73
2019-02-23T01:53:11.268Z,5.10
2019-02-23T01:56:14.603Z,5.57
2019-02-23T01:59:18.063Z,5.17
2019-02-23T02:02:21.468Z,4.60
2019-02-23T02:05:25.012Z,4.83
2019-02-23T02:08:28.468Z,5.33
2019-02-23T02:11:31.868Z,6.07
2019-02-23T02:14:35.576Z,5.33
2019-02-23T02:17:39.084Z,5.40
2019-02-23T02:20:42.480Z,5.17
2019-02-23T02:23:47.005Z,5.53
2019-02-23T02:26:50.552Z,4.60
2019-02-23T02:29:54.012Z,5.27
2019-02-23T02:32:57.412Z,4.77
2019-02-23T02:36:00.816Z,4.90
2019-02-23T02:39:10.660Z,4.53
2019-02-23T02:42:14.059Z,4.63
2019-02-23T02:45:17.471Z,5.10
2019-02-23T02:48:21.892Z,4.30
2019-02-23T02:51:25.293Z,5.17
2019-02-23T02:54:28.684Z,4.83
2019-02-23T02:57:32.089Z,4.63
2019-02-23T03:00:35.593Z,5.03
2019-02-23T03:03:39.028Z,4.87
2019-02-23T03:06:42.628Z,4.50
2019-02-23T03:09:46.096Z,5.20
2019-02-23T03:12:49.538Z,4.63
2019-02-23T03:15:52.992Z,4.67
2019-02-23T03:18:56.434Z,5.03
2019-02-23T03:22:00.040Z,5.03
2019-02-23T03:25:03.608Z,4.53
2019-02-23T03:28:07.268Z,5.33
2019-02-23T03:31:10.787Z,4.77
2019-02-23T03:34:14.260Z,5.47
2019-02-23T03:37:17.755Z,5.03
2019-02-23T03:40:21.220Z,5.03
2019-02-23T03:43:24.760Z,5.00
2019-02-23T03:46:28.220Z,5.40
2019-02-23T03:49:32.638Z,4.87
2019-02-23T03:52:36.017Z,5.30
2019-02-23T03:55:39.545Z,4.80
2019-02-23T03:58:43.108Z,4.93
2019-02-23T04:01:46.552Z,4.97
2019-02-23T04:04:49.948Z,5.40
2019-02-23T04:07:53.501Z,6.03
2019-02-23T04:10:56.952Z,5.43
2019-02-23T04:14:00.505Z,5.80
2019-02-23T04:17:03.984Z,5.30
2019-02-23T04:20:07.875Z,5.20
2019-02-23T04:23:11.421Z,6.17
2019-02-23T04:26:14.876Z,5.80
2019-02-23T04:29:18.316Z,5.60
2019-02-23T04:32:21.780Z,5.67
2019-02-23T04:35:25.182Z,5.93
2019-02-23T04:38:28.721Z,5.80
2019-02-23T04:41:32.345Z,5.97
2019-02-23T04:44:35.832Z,6.27
2019-02-23T04:47:39.288Z,6.33
2019-02-23T04:50:42.796Z,6.70
2019-02-23T04:53:46.656Z,5.97
2019-02-23T04:56:50.234Z,6.77
2019-02-23T04:59:53.707Z,5.93
2019-02-23T05:02:57.282Z,6.27
2019-02-23T05:06:00.712Z,6.13
2019-02-23T05:09:04.630Z,5.77
2019-02-23T05:12:08.168Z,5.50
2019-02-23T05:15:11.640Z,7.03
2019-02-23T05:18:15.181Z,6.60
2019-02-23T05:21:26.186Z,6.50
2019-02-23T05:24:24.804Z,6.27
2019-02-23T05:27:28.203Z,6.37
2019-02-23T05:30:31.623Z,6.53
2019-02-23T05:33:34.997Z,7.77
2019-02-23T05:36:38.398Z,6.90
2019-02-23T05:39:41.903Z,6.23
2019-02-23T05:42:45.337Z,7.43
2019-02-23T05:45:48.813Z,7.17
2019-02-23T05:48:52.485Z,6.77
2019-02-23T05:51:55.908Z,7.50
2019-02-23T05:54:59.316Z,8.27
2019-02-23T05:58:03.771Z,7.27
2019-02-23T06:01:07.304Z,7.63
2019-02-23T06:04:10.709Z,7.50
2019-02-23T06:07:14.208Z,7.90
2019-02-23T06:10:17.660Z,7.03
2019-02-23T06:13:22.131Z,6.27
2019-02-23T06:16:25.735Z,7.73
2019-02-23T06:19:29.140Z,7.77
2019-02-23T06:22:32.740Z,6.80
2019-02-23T06:25:36.158Z,7.03
2019-02-23T06:28:39.648Z,7.50
2019-02-23T06:31:43.245Z,7.00
2019-02-23T06:34:46.648Z,6.77
2019-02-23T06:37:50.152Z,6.50
2019-02-23T06:40:53.556Z,6.17
2019-02-23T06:43:57.001Z,7.33
2019-02-23T06:47:00.556Z,7.87
2019-02-23T06:50:04.263Z,10.57
2019-02-23T06:53:07.708Z,11.53
2019-02-23T06:56:11.167Z,8.93
2019-02-23T06:59:14.609Z,8.17
2019-02-23T07:02:18.063Z,8.93
2019-02-23T07:05:21.516Z,7.30
2019-02-23T07:08:24.975Z,8.57
2019-02-23T07:11:28.508Z,10.53
2019-02-23T07:14:32.323Z,12.07
2019-02-23T07:17:36.996Z,11.70
2019-02-23T07:20:44.146Z,10.73
2019-02-23T07:23:45.759Z,10.10
2019-02-23T07:26:49.160Z,9.53
2019-02-23T07:29:52.702Z,9.13
2019-02-23T07:32:56.265Z,8.73
2019-02-23T07:35:59.807Z,7.63
2019-02-23T07:39:04.956Z,8.20
2019-02-23T07:42:08.826Z,7.73
2019-02-23T07:45:12.572Z,8.43
2019-02-23T07:48:16.128Z,7.80
2019-02-23T07:51:19.575Z,8.20
2019-02-23T07:54:23.076Z,8.70
2019-02-23T07:57:27.460Z,7.70
2019-02-23T08:00:30.997Z,8.53
2019-02-23T08:03:34.564Z,8.30
2019-02-23T08:06:38.013Z,8.20
2019-02-23T08:09:41.508Z,7.20
2019-02-23T08:12:45.100Z,6.53
2019-02-23T08:15:48.716Z,6.93
2019-02-23T08:18:52.387Z,7.53
2019-02-23T08:21:55.786Z,7.40
2019-02-23T08:24:59.352Z,7.40
2019-02-23T08:28:02.995Z,7.57
2019-02-23T08:31:06.435Z,7.37
2019-02-23T08:34:09.996Z,7.43
2019-02-23T08:37:13.400Z,7.97
2019-02-23T08:40:16.836Z,7.10
2019-02-23T08:43:20.852Z,7.43
2019-02-23T08:46:24.459Z,7.37
2019-02-23T08:49:28.021Z,7.30
2019-02-23T08:52:31.421Z,7.40
2019-02-23T08:55:34.864Z,7.37
2019-02-23T08:58:38.328Z,6.37
2019-02-23T09:01:41.772Z,7.47
2019-02-23T09:04:45.583Z,7.50
2019-02-23T09:07:49.042Z,7.33
2019-02-23T09:10:52.475Z,6.00
2019-02-23T09:13:55.940Z,6.67
2019-02-23T09:16:59.340Z,5.87
2019-02-23T09:20:03.092Z,6.50
2019-02-23T09:23:06.652Z,6.20
2019-02-23T09:26:10.099Z,6.83
2019-02-23T09:29:13.548Z,6.87
2019-02-23T09:32:17.132Z,6.93
2019-02-23T09:35:20.703Z,5.93
2019-02-23T09:38:24.268Z,5.43
2019-02-23T09:41:27.665Z,5.77
2019-02-23T09:44:31.068Z,6.13
2019-02-23T09:47:34.567Z,6.00
2019-02-23T09:50:38.111Z,5.83
2019-02-23T09:53:42.188Z,4.80
2019-02-23T09:56:45.585Z,5.33
2019-02-23T09:59:48.984Z,5.20
2019-02-23T10:02:52.484Z,5.47
2019-02-23T10:05:55.937Z,5.07
2019-02-23T10:08:59.492Z,5.10
2019-02-23T10:12:02.992Z,4.80
2019-02-23T10:15:06.641Z,5.80
2019-02-23T10:18:10.108Z,4.47
2019-02-23T10:21:13.504Z,5.17
2019-02-23T10:24:17.004Z,4.43
2019-02-23T10:27:20.504Z,5.40
2019-02-23T10:30:23.907Z,4.97
2019-02-23T10:33:27.307Z,4.87
2019-02-23T10:36:30.709Z,4.25
2019-02-23T10:39:34.113Z,5.33
2019-02-23T10:42:37.513Z,5.10
2019-02-23T10:45:41.004Z,4.40
2019-02-23T10:48:44.408Z,4.30
2019-02-23T10:51:47.848Z,4.25
2019-02-23T10:54:51.417Z,4.50
2019-02-23T10:57:54.965Z,4.83
2019-02-23T11:00:58.416Z,4.22
2019-02-23T11:04:01.955Z,5.10
2019-02-23T11:07:06.523Z,3.92
2019-02-23T11:10:10.256Z,5.05
2019-02-23T11:13:13.692Z,4.25
2019-02-23T11:16:17.256Z,4.58
2019-02-23T11:19:20.765Z,4.17
2019-02-23T11:22:24.403Z,5.00
2019-02-23T11:25:27.976Z,4.90
2019-02-23T11:28:31.412Z,5.00
2019-02-23T11:31:34.871Z,4.75
2019-02-23T11:34:38.320Z,5.17
2019-02-23T11:37:43.664Z,4.80
2019-02-23T11:40:47.124Z,5.53
2019-02-23T11:43:50.576Z,4.42
2019-02-23T11:47:01.022Z,4.10
2019-02-23T11:49:59.200Z,3.52
2019-02-23T11:53:02.808Z,3.55
2019-02-23T11:56:06.376Z,3.60
2019-02-23T11:59:09.772Z,3.72
2019-02-23T12:02:13.239Z,3.60
2019-02-23T12:05:16.750Z,3.75
2019-02-23T12:08:20.240Z,4.17
2019-02-23T12:11:23.710Z,4.17
2019-02-23T12:14:27.212Z,4.15
2019-02-23T12:17:30.849Z,4.20
2019-02-23T12:20:34.439Z,4.35
2019-02-23T12:23:37.851Z,4.30
2019-02-23T12:26:41.317Z,3.58
2019-02-23T12:29:44.819Z,3.20
2019-02-23T12:32:48.263Z,3.15
2019-02-23T12:35:51.828Z,3.95
2019-02-23T12:38:55.472Z,4.17
2019-02-23T12:41:58.928Z,4.28
2019-02-23T12:45:02.441Z,3.65
2019-02-23T12:48:06.108Z,4.15
2019-02-23T12:51:09.544Z,4.20
2019-02-23T12:54:16.865Z,4.22
2019-02-23T12:57:18.483Z,4.22
2019-02-23T13:00:22.098Z,4.00
2019-02-23T13:03:25.658Z,4.15
2019-02-23T13:06:29.104Z,4.08
2019-02-23T13:09:34.795Z,4.05
2019-02-23T13:12:58.016Z,4.42
2019-02-23T13:16:12.384Z,4.05
2019-02-23T13:20:00.339Z,3.72
2019-02-23T13:23:47.302Z,4.72
2019-02-23T13:27:37.688Z,4.40
2019-02-23T13:31:40.683Z,4.08
2019-02-23T13:35:20.904Z,3.70
2019-02-23T13:39:29.983Z,4.28
2019-02-23T13:42:56.486Z,4.65
2019-02-23T13:46:30.920Z,3.87
2019-02-23T13:50:19.047Z,3.85
2019-02-23T13:53:54.552Z,3.75
2019-02-23T13:57:15.833Z,4.17
2019-02-23T14:00:53.718Z,3.45
2019-02-23T14:04:32.000Z,3.37
2019-02-23T14:08:05.156Z,3.20
2019-02-23T14:12:01.497Z,3.17
2019-02-23T14:15:40.533Z,3.22
2019-02-23T14:19:25.655Z,3.55
2019-02-23T14:23:13.488Z,3.33
2019-02-23T14:26:50.176Z,3.37
2019-02-23T14:30:22.860Z,3.37
2019-02-23T14:34:07.692Z,3.25
2019-02-23T14:37:41.162Z,2.92
2019-02-23T14:41:13.414Z,2.77
2019-02-23T14:44:45.852Z,3.30
2019-02-23T14:48:12.438Z,3.92
2019-02-23T14:52:21.740Z,3.30
2019-02-23T14:56:03.996Z,2.95
2019-02-23T14:59:46.918Z,2.72
2019-02-23T15:03:31.162Z,3.62
2019-02-23T15:07:06.180Z,3.17
2019-02-23T15:10:55.597Z,2.95
2019-02-23T15:14:16.159Z,3.10
2019-02-23T15:18:15.369Z,3.40
2019-02-23T15:21:56.656Z,3.27
2019-02-23T15:25:43.205Z,3.15
2019-02-23T15:29:12.785Z,4.28
2019-02-23T15:33:01.340Z,3.40
2019-02-23T15:36:43.289Z,3.10
2019-02-23T15:40:17.052Z,3.12
2019-02-23T15:43:33.825Z,3.30
2019-02-23T15:47:21.952Z,3.30
2019-02-23T15:50:25.448Z,3.30
2019-02-23T15:53:28.911Z,3.52
2019-02-23T15:56:32.428Z,3.70
2019-02-23T15:59:35.820Z,4.25
2019-02-23T16:02:39.327Z,4.40
2019-02-23T16:05:42.732Z,4.33
2019-02-23T16:08:46.328Z,4.58
2019-02-23T16:11:49.734Z,4.55
2019-02-23T16:14:53.135Z,4.25
2019-02-23T16:17:56.530Z,4.28
2019-02-23T16:20:59.881Z,4.33
2019-02-23T16:24:03.229Z,4.12
2019-02-23T16:27:06.732Z,4.17
2019-02-23T16:30:10.127Z,3.90
2019-02-23T16:33:13.529Z,3.92
2019-02-23T16:36:17.092Z,4.22
2019-02-23T16:39:20.534Z,4.58
2019-02-23T16:42:24.028Z,5.47
2019-02-23T16:45:27.437Z,5.90
2019-02-23T16:48:32.536Z,4.83
2019-02-23T16:51:35.980Z,4.10
2019-02-23T16:54:40.404Z,4.00
2019-02-23T16:57:44.049Z,3.83
2019-02-23T17:00:48.839Z,4.13
2019-02-23T17:03:52.276Z,3.65
2019-02-23T17:06:55.886Z,5.22
2019-02-23T17:09:59.447Z,4.70
2019-02-23T17:13:03.001Z,7.17
2019-02-23T17:16:06.459Z,6.70
2019-02-23T17:19:09.993Z,7.23
2019-02-23T17:22:13.598Z,7.37
2019-02-23T17:25:17.060Z,6.80
2019-02-23T17:28:20.503Z,6.23
2019-02-23T17:31:24.064Z,7.63
2019-02-23T17:34:27.504Z,6.93
2019-02-23T17:37:31.008Z,8.30
2019-02-23T17:40:34.476Z,7.97
2019-02-23T17:43:40.205Z,9.20
2019-02-23T17:46:43.281Z,6.67
2019-02-23T17:49:47.254Z,7.10
2019-02-23T17:52:50.631Z,8.30
2019-02-23T17:55:54.077Z,9.77
2019-02-23T17:58:57.584Z,11.47
2019-02-23T18:02:11.036Z,10.73
2019-02-23T18:05:14.468Z,8.50
2019-02-23T18:08:18.016Z,7.53
2019-02-23T18:11:21.512Z,9.60
2019-02-23T18:14:26.146Z,9.80
2019-02-23T18:17:29.644Z,8.97
2019-02-23T18:20:33.130Z,12.67
2019-02-23T18:23:36.644Z,15.17
2019-02-23T18:26:41.240Z,19.23
2019-02-23T18:29:44.647Z,18.47
2019-02-23T18:32:48.179Z,20.10
2019-02-23T18:35:51.739Z,22.57
2019-02-23T18:38:55.285Z,18.27
2019-02-23T18:41:58.751Z,17.33
2019-02-23T18:45:02.151Z,18.67
2019-02-23T18:48:05.789Z,20.60
2019-02-23T18:51:09.259Z,16.23
2019-02-23T18:54:12.901Z,12.30
2019-02-23T18:57:16.467Z,16.13
2019-02-23T19:00:24.365Z,19.60
2019-02-23T19:03:25.252Z,18.30
2019-02-23T19:06:28.712Z,17.20
2019-02-23T19:09:32.115Z,17.33
2019-02-23T19:12:35.512Z,16.83
2019-02-23T19:15:39.115Z,15.97
2019-02-23T19:18:42.661Z,17.20
2019-02-23T19:21:46.225Z,17.63
2019-02-23T19:24:49.731Z,16.87
2019-02-23T19:27:53.124Z,17.43
2019-02-23T19:30:56.528Z,21.47
2019-02-23T19:33:59.964Z,16.93
2019-02-23T19:37:03.529Z,17.33
2019-02-23T19:40:08.104Z,15.57
2019-02-23T19:43:11.702Z,14.30
2019-02-23T19:46:15.164Z,14.40
2019-02-23T19:49:18.568Z,15.07
2019-02-23T19:52:22.177Z,14.37
2019-02-23T19:55:25.572Z,14.17
2019-02-23T19:58:29.134Z,15.00
2019-02-23T20:01:32.572Z,14.63
2019-02-23T20:04:35.972Z,13.83
2019-02-23T20:07:39.476Z,13.27
2019-02-23T20:10:43.033Z,13.57
2019-02-23T20:13:46.515Z,13.10
2019-02-23T20:16:51.825Z,12.73
2019-02-23T20:19:55.224Z,13.03
2019-02-23T20:22:58.624Z,12.63
2019-02-23T20:26:02.129Z,12.20
2019-02-23T20:29:05.529Z,13.10
2019-02-23T20:32:08.929Z,13.97
2019-02-23T20:35:12.434Z,11.87
2019-02-23T20:38:15.840Z,13.53
2019-02-23T20:41:19.227Z,13.13
2019-02-23T20:44:22.861Z,13.83
2019-02-23T20:47:26.232Z,14.07
2019-02-23T20:50:29.940Z,13.27
2019-02-23T20:53:33.443Z,15.23
2019-02-23T20:56:36.946Z,15.20
2019-02-23T20:59:40.448Z,14.77
2019-02-23T21:02:43.958Z,14.77
2019-02-23T21:05:47.626Z,15.47
2019-02-23T21:08:51.299Z,15.33
2019-02-23T21:11:54.867Z,20.57
2019-02-23T21:14:58.404Z,19.07
2019-02-23T21:18:02.019Z,18.27
2019-02-23T21:21:05.531Z,16.80
2019-02-23T21:24:09.003Z,17.00
2019-02-23T21:27:13.168Z,15.83
2019-02-23T21:30:16.844Z,15.40
2019-02-23T21:33:20.409Z,16.73
2019-02-23T21:36:24.987Z,15.30
2019-02-23T21:39:28.476Z,14.03
2019-02-23T21:42:32.040Z,14.43
2019-02-23T21:45:35.481Z,14.87
2019-02-23T21:48:38.939Z,15.10
2019-02-23T21:51:42.351Z,14.57
2019-02-23T21:54:46.028Z,13.87
2019-02-23T21:57:49.466Z,13.97
2019-02-23T22:00:52.889Z,13.43
2019-02-23T22:03:56.352Z,13.77
2019-02-23T22:06:59.852Z,13.93
2019-02-23T22:10:05.163Z,12.60
2019-02-23T22:13:08.704Z,11.33
2019-02-23T22:16:12.250Z,11.47
2019-02-23T22:19:15.711Z,12.43
2019-02-23T22:22:19.119Z,12.53
2019-02-23T22:25:22.547Z,10.33
2019-02-23T22:28:26.113Z,11.53
2019-02-23T22:31:29.526Z,11.93
2019-02-23T22:34:32.949Z,11.93
2019-02-23T22:37:36.412Z,11.60
2019-02-23T22:40:39.852Z,11.70
2019-02-23T22:43:43.415Z,10.73
2019-02-23T22:46:46.820Z,11.47
2019-02-23T22:49:50.383Z,11.20
2019-02-23T22:52:53.871Z,12.03
2019-02-23T22:55:57.328Z,11.27
2019-02-23T22:59:00.729Z,11.17
2019-02-23T23:02:04.325Z,13.53
2019-02-23T23:05:07.976Z,15.37
2019-02-23T23:08:12.478Z,14.57
2019-02-23T23:11:15.969Z,13.97
2019-02-23T23:14:19.668Z,14.77
2019-02-23T23:17:23.276Z,14.43
2019-02-23T23:20:26.714Z,14.50
2019-02-23T23:23:30.176Z,14.53
2019-02-23T23:26:33.683Z,14.77
2019-02-23T23:29:37.075Z,14.83
2019-02-23T23:32:40.484Z,15.70
2019-02-23T23:35:43.920Z,15.80
2019-02-23T23:38:47.384Z,16.07
2019-02-23T23:41:50.988Z,16.77
2019-02-23T23:44:54.388Z,11.37
2019-02-23T23:47:57.687Z,10.37
2019-02-23T23:51:01.224Z,10.43
2019-02-23T23:54:04.792Z,9.17
2019-02-23T23:57:08.331Z,8.10
